Time,TemperatureF,DewpointF,PressureIn,WindDirection,WindDirectionDegrees,WindSpeedMPH,WindSpeedGustMPH,Humidity,HourlyPrecipIn,Conditions,Clouds,dailyrainin,SoftwareType,DateUTC
2013-03-16 00:03:00,29.4,26.3,29.68,West,263,2.0,10.0,88,0.00,CLR,,0.00,WeatherDisplay:10.37,2013-03-16 04:03:00,
2013-03-16 00:13:00,29.4,26.0,29.68,West,263,2.0,8.0,87,0.00,CLR,,0.00,WeatherDisplay:10.37,2013-03-16 04:13:00,
2013-03-16 00:23:00,29.5,25.3,29.69,West,280,6.0,12.0,84,0.00,CLR,,0.00,WeatherDisplay:10.37,2013-03-16 04:23:00,
2013-03-16 00:33:00,29.5,24.7,29.69,West,273,6.0,14.0,82,0.00,CLR,,0.00,WeatherDisplay:10.37,2013-03-16 04:33:00,
2013-03-16 00:43:00,29.5,24.1,29.69,West,274,5.0,9.0,80,0.00,CLR,,0.00,WeatherDisplay:10.37,2013-03-16 04:43:00,
2013-03-16 00:53:00,29.4,24.0,29.70,West,278,3.0,8.0,80,0.00,CLR,,0.00,WeatherDisplay:10.37,2013-03-16 04:53:00,
2013-03-16 01:03:00,29.5,23.8,29.70,West,278,2.0,12.0,79,0.00,CLR,,0.00,WeatherDisplay:10.37,2013-03-16 05:03:00,
2013-03-16 01:13:00,29.7,23.4,29.71,WNW,297,3.0,12.0,77,0.00,CLR,,0.00,WeatherDisplay:10.37,2013-03-16 05:13:00,
2013-03-16 01:23:00,29.8,23.5,29.71,NNW,338,1.0,12.0,77,0.00,CLR,,0.00,WeatherDisplay:10.37,2013-03-16 05:23:00,
2013-03-16 01:33:00,29.7,23.4,29.71,NW,320,2.0,7.0,77,0.00,CLR,,0.00,WeatherDisplay:10.37,2013-03-16 05:33:00,
2013-03-16 01:43:00,29.5,23.2,29.71,NNW,332,0.0,9.0,77,0.00,CLR,,0.00,WeatherDisplay:10.37,2013-03-16 05:43:00,
2013-03-16 01:53:00,29.4,22.5,29.72,NW,322,1.0,6.0,75,0.00,CLR,,0.00,WeatherDisplay:10.37,2013-03-16 05:53:00,
2013-03-16 02:03:00,29.4,22.5,29.72,NNW,329,3.0,10.0,75,0.00,OVC,,0.00,WeatherDisplay:10.37,2013-03-16 06:03:00,
2013-03-16 02:13:00,29.4,22.5,29.73,NNW,337,2.0,12.0,75,0.00,OVC,,0.00,WeatherDisplay:10.37,2013-03-16 06:13:00,
2013-03-16 02:23:00,29.1,22.2,29.73,NW,326,3.0,7.0,75,0.00,OVC,,0.00,WeatherDisplay:10.37,2013-03-16 06:23:00,
2013-03-16 02:33:00,28.8,22.5,29.73,NNW,339,1.0,5.0,77,0.00,OVC,,0.00,WeatherDisplay:10.37,2013-03-16 06:33:00,
2013-03-16 02:43:00,28.9,22.3,29.74,NNW,343,1.0,5.0,76,0.00,OVC,,0.00,WeatherDisplay:10.37,2013-03-16 06:43:00,
2013-03-16 02:53:00,29.1,22.5,29.74,NNW,333,0.0,7.0,76,0.00,OVC,,0.00,WeatherDisplay:10.37,2013-03-16 06:53:00,
2013-03-16 03:03:00,28.9,22.3,29.74,NW,305,3.0,7.0,76,0.00,OVC,,0.00,WeatherDisplay:10.37,2013-03-16 07:03:00,
2013-03-16 03:13:00,28.8,21.9,29.74,WNW,282,2.0,5.0,75,0.00,OVC,,0.00,WeatherDisplay:10.37,2013-03-16 07:13:00,
2013-03-16 03:23:00,28.9,21.3,29.75,NNW,332,0.0,7.0,73,0.00,OVC,,0.00,WeatherDisplay:10.37,2013-03-16 07:23:00,
2013-03-16 03:33:00,28.5,20.6,29.75,WNW,284,0.0,5.0,72,0.00,OVC,,0.00,WeatherDisplay:10.37,2013-03-16 07:33:00,
2013-03-16 03:43:00,28.1,19.6,29.75,NNW,346,3.0,7.0,70,0.00,OVC,,0.00,WeatherDisplay:10.37,2013-03-16 07:43:00,
2013-03-16 03:53:00,28.2,19.3,29.75,WNW,301,1.0,6.0,69,0.00,OVC,,0.00,WeatherDisplay:10.37,2013-03-16 07:53:00,
2013-03-16 04:03:00,28.1,19.6,29.75,West,281,0.0,3.0,70,0.00,OVC,,0.00,WeatherDisplay:10.37,2013-03-16 08:03:00,
2013-03-16 04:13:00,27.5,19.0,29.76,West,278,1.0,4.0,70,0.00,BKN,,0.00,WeatherDisplay:10.37,2013-03-16 08:13:00,
2013-03-16 04:23:00,27.0,18.5,29.77,West,270,1.0,5.0,70,0.00,BKN,,0.00,WeatherDisplay:10.37,2013-03-16 08:23:00,
2013-03-16 04:33:00,26.4,17.6,29.77,WNW,289,2.0,4.0,69,0.00,BKN,,0.00,WeatherDisplay:10.37,2013-03-16 08:33:00,
2013-03-16 04:43:00,26.0,16.9,29.77,West,278,3.0,7.0,68,0.00,BKN,,0.00,WeatherDisplay:10.37,2013-03-16 08:43:00,
2013-03-16 04:53:00,26.0,16.2,29.78,West,269,1.0,3.0,66,0.00,BKN,,0.00,WeatherDisplay:10.37,2013-03-16 08:53:00,
2013-03-16 05:03:00,25.7,15.9,29.78,West,276,1.0,6.0,66,0.00,BKN,,0.00,WeatherDisplay:10.37,2013-03-16 09:03:00,
2013-03-16 05:13:00,25.4,15.6,29.78,WNW,284,2.0,5.0,66,0.00,CLR,,0.00,WeatherDisplay:10.37,2013-03-16 09:13:00,
2013-03-16 05:23:00,25.3,15.1,29.79,West,280,1.0,4.0,65,0.00,CLR,,0.00,WeatherDisplay:10.37,2013-03-16 09:23:00,
2013-03-16 05:33:00,25.1,14.7,29.79,West,270,0.0,4.0,64,0.00,CLR,,0.00,WeatherDisplay:10.37,2013-03-16 09:33:00,
2013-03-16 05:43:00,24.7,14.3,29.80,WSW,254,1.0,5.0,64,0.00,CLR,,0.00,WeatherDisplay:10.37,2013-03-16 09:43:00,
2013-03-16 05:53:00,24.8,13.6,29.80,West,275,2.0,6.0,62,0.00,CLR,,0.00,WeatherDisplay:10.37,2013-03-16 09:53:00,
2013-03-16 06:03:00,24.6,13.4,29.80,WNW,283,0.0,3.0,62,0.00,CLR,,0.00,WeatherDisplay:10.37,2013-03-16 10:03:00,
2013-03-16 06:13:00,24.0,13.2,29.81,West,281,1.0,3.0,63,0.00,CLR,,0.00,WeatherDisplay:10.37,2013-03-16 10:13:00,
2013-03-16 06:23:00,23.6,12.8,29.81,WNW,294,0.0,3.0,63,0.00,CLR,,0.00,WeatherDisplay:10.37,2013-03-16 10:23:00,
2013-03-16 06:33:00,23.0,12.9,29.81,NW,308,0.0,0.0,65,0.00,CLR,,0.00,WeatherDisplay:10.37,2013-03-16 10:33:00,
2013-03-16 06:43:00,22.7,12.7,29.82,WNW,303,0.0,2.0,65,0.00,CLR,,0.00,WeatherDisplay:10.37,2013-03-16 10:43:00,
2013-03-16 06:53:00,23.1,13.4,29.82,NW,309,1.0,5.0,66,0.00,CLR,,0.00,WeatherDisplay:10.37,2013-03-16 10:53:00,
2013-03-16 07:03:00,23.3,13.3,29.82,WNW,289,0.0,3.0,65,0.00,CLR,,0.00,WeatherDisplay:10.37,2013-03-16 11:03:00,
2013-03-16 07:13:00,23.5,13.5,29.82,NW,323,1.0,5.0,65,0.00,CLR,,0.00,WeatherDisplay:10.37,2013-03-16 11:13:00,
2013-03-16 07:23:00,23.3,13.6,29.82,WNW,303,1.0,3.0,66,0.00,CLR,,0.00,WeatherDisplay:10.37,2013-03-16 11:23:00,
2013-03-16 07:33:00,23.3,13.6,29.83,NW,310,1.0,4.0,66,0.00,CLR,,0.00,WeatherDisplay:10.37,2013-03-16 11:33:00,
2013-03-16 07:43:00,23.8,13.8,29.83,NNW,336,3.0,6.0,65,0.00,CLR,,0.00,WeatherDisplay:10.37,2013-03-16 11:43:00,
2013-03-16 07:53:00,24.3,13.9,29.83,NW,306,2.0,5.0,64,0.00,CLR,,0.00,WeatherDisplay:10.37,2013-03-16 11:53:00,
2013-03-16 08:03:00,24.6,13.8,29.84,NNW,335,0.0,4.0,63,0.00,CLR,,0.00,WeatherDisplay:10.37,2013-03-16 12:03:00,
2013-03-16 08:13:00,24.9,14.1,29.84,WNW,294,2.0,7.0,63,0.00,CLR,,0.00,WeatherDisplay:10.37,2013-03-16 12:13:00,
2013-03-16 08:23:00,25.1,13.9,29.84,WNW,293,1.0,13.0,62,0.00,CLR,,0.00,WeatherDisplay:10.37,2013-03-16 12:23:00,
2013-03-16 08:33:00,25.4,13.8,29.84,WNW,293,5.0,9.0,61,0.00,CLR,,0.00,WeatherDisplay:10.37,2013-03-16 12:33:00,
2013-03-16 08:43:00,25.5,13.2,29.84,NW,304,5.0,12.0,59,0.00,CLR,,0.00,WeatherDisplay:10.37,2013-03-16 12:43:00,
2013-03-16 08:53:00,25.9,13.5,29.84,NW,316,3.0,7.0,59,0.00,CLR,,0.00,WeatherDisplay:10.37,2013-03-16 12:53:00,
2013-03-16 09:03:00,26.1,12.1,29.84,NW,304,5.0,10.0,55,0.00,CLR,,0.00,WeatherDisplay:10.37,2013-03-16 13:03:00,
2013-03-16 09:13:00,26.4,13.2,29.83,NNW,328,2.0,9.0,57,0.00,CLR,,0.00,WeatherDisplay:10.37,2013-03-16 13:13:00,
2013-03-16 09:23:00,26.6,12.2,29.84,WNW,285,5.0,12.0,54,0.00,CLR,,0.00,WeatherDisplay:10.37,2013-03-16 13:23:00,
2013-03-16 09:33:00,27.1,11.8,29.84,WNW,291,3.0,9.0,52,0.00,CLR,,0.00,WeatherDisplay:10.37,2013-03-16 13:33:00,
2013-03-16 09:43:00,27.6,11.4,29.84,NW,325,1.0,12.0,50,0.00,CLR,,0.00,WeatherDisplay:10.37,2013-03-16 13:43:00,
2013-03-16 09:53:00,28.1,12.3,29.83,NW,326,2.0,9.0,51,0.00,CLR,,0.00,WeatherDisplay:10.37,2013-03-16 13:53:00,
2013-03-16 10:03:00,28.2,11.5,29.83,NNE,30,2.0,9.0,49,0.00,CLR,,0.00,WeatherDisplay:10.37,2013-03-16 14:03:00,
2013-03-16 10:13:00,28.2,11.0,29.82,NNW,340,2.0,10.0,48,0.00,CLR,,0.00,WeatherDisplay:10.37,2013-03-16 14:13:00,
2013-03-16 10:23:00,28.6,12.3,29.83,NW,321,2.0,7.0,50,0.00,CLR,,0.00,WeatherDisplay:10.37,2013-03-16 14:23:00,
2013-03-16 10:33:00,28.5,10.3,29.83,WNW,287,3.0,7.0,46,0.00,CLR,,0.00,WeatherDisplay:10.37,2013-03-16 14:33:00,
2013-03-16 10:43:00,28.4,10.7,29.82,WNW,302,3.0,9.0,47,0.00,CLR,,0.00,WeatherDisplay:10.37,2013-03-16 14:43:00,
2013-03-16 10:53:00,28.8,11.6,29.83,North,358,2.0,7.0,48,0.00,CLR,,0.00,WeatherDisplay:10.37,2013-03-16 14:53:00,
2013-03-16 11:03:00,28.9,11.6,29.83,NW,313,3.0,7.0,48,0.00,CLR,,0.00,WeatherDisplay:10.37,2013-03-16 15:03:00,
2013-03-16 11:13:00,28.9,11.2,29.83,WNW,301,3.0,9.0,47,0.00,BKN,,0.00,WeatherDisplay:10.37,2013-03-16 15:13:00,
2013-03-16 11:23:00,29.2,11.9,29.82,WNW,293,3.0,7.0,48,0.00,BKN,,0.00,WeatherDisplay:10.37,2013-03-16 15:23:00,
2013-03-16 11:33:00,29.4,13.5,29.82,WNW,286,2.0,6.0,51,0.00,BKN,,0.00,WeatherDisplay:10.37,2013-03-16 15:33:00,
2013-03-16 11:43:00,29.8,13.4,29.82,West,277,1.0,7.0,50,0.00,BKN,,0.00,WeatherDisplay:10.37,2013-03-16 15:43:00,
2013-03-16 11:53:00,30.4,14.0,29.82,West,277,2.0,6.0,50,0.00,BKN,,0.00,WeatherDisplay:10.37,2013-03-16 15:53:00,
2013-03-16 12:03:00,30.6,10.7,29.82,NW,307,6.0,9.0,43,0.00,OVC,,0.00,WeatherDisplay:10.37,2013-03-16 16:03:00,
2013-03-16 12:13:00,30.8,10.4,29.81,West,265,1.0,5.0,42,0.00,OVC,,0.00,WeatherDisplay:10.37,2013-03-16 16:13:00,
2013-03-16 12:23:00,30.7,10.3,29.81,WNW,293,0.0,6.0,42,0.00,OVC,,0.00,WeatherDisplay:10.37,2013-03-16 16:23:00,
2013-03-16 12:33:00,32.1,13.6,29.81,SW,230,2.0,5.0,46,0.00,OVC,,0.00,WeatherDisplay:10.37,2013-03-16 16:33:00,
2013-03-16 12:43:00,31.8,10.2,29.81,West,278,2.0,7.0,40,0.00,OVC,,0.00,WeatherDisplay:10.37,2013-03-16 16:43:00,
2013-03-16 12:53:00,30.9,11.0,29.80,North,7,1.0,7.0,43,0.00,OVC,,0.00,WeatherDisplay:10.37,2013-03-16 16:53:00,
2013-03-16 13:03:00,31.1,11.2,29.80,WNW,293,1.0,7.0,43,0.00,OVC,,0.00,WeatherDisplay:10.37,2013-03-16 17:03:00,
2013-03-16 13:13:00,31.6,11.1,29.80,NNE,27,3.0,7.0,42,0.00,FEW,,0.00,WeatherDisplay:10.37,2013-03-16 17:13:00,
2013-03-16 13:23:00,32.0,9.2,29.79,North,354,1.0,5.0,38,0.00,FEW,,0.00,WeatherDisplay:10.37,2013-03-16 17:23:00,
2013-03-16 13:33:00,32.5,11.4,29.79,WNW,299,2.0,7.0,41,0.00,FEW,,0.00,WeatherDisplay:10.37,2013-03-16 17:33:00,
2013-03-16 13:43:00,33.0,11.2,29.79,NNW,336,3.0,9.0,40,0.00,FEW,,0.00,WeatherDisplay:10.37,2013-03-16 17:43:00,
2013-03-16 13:53:00,33.3,9.8,29.78,WNW,296,3.0,10.0,37,0.00,FEW,,0.00,WeatherDisplay:10.37,2013-03-16 17:53:00,
2013-03-16 14:03:00,33.8,8.3,29.78,WNW,297,6.0,10.0,34,0.00,FEW,,0.00,WeatherDisplay:10.37,2013-03-16 18:03:00,
2013-03-16 14:13:00,34.6,9.7,29.78,West,260,3.0,6.0,35,0.00,OVC,,0.00,WeatherDisplay:10.37,2013-03-16 18:13:00,
2013-03-16 14:23:00,34.7,12.8,29.78,West,274,2.0,5.0,40,0.00,OVC,,0.00,WeatherDisplay:10.37,2013-03-16 18:23:00,
2013-03-16 14:33:00,34.1,10.5,29.78,NNW,327,7.0,10.0,37,0.00,OVC,,0.00,WeatherDisplay:10.37,2013-03-16 18:33:00,
2013-03-16 14:43:00,33.5,10.6,29.79,NW,310,2.0,12.0,38,0.00,OVC,,0.00,WeatherDisplay:10.37,2013-03-16 18:43:00,
2013-03-16 14:53:00,33.8,10.8,29.78,WNW,286,3.0,10.0,38,0.00,OVC,,0.00,WeatherDisplay:10.37,2013-03-16 18:53:00,
2013-03-16 15:33:00,34.9,11.8,29.78,WNW,288,2.0,12.0,38,0.00,BKN,,0.00,WeatherDisplay:10.37,2013-03-16 19:33:00,
2013-03-16 15:43:00,36.7,13.4,29.78,West,266,3.0,10.0,38,0.00,BKN,,0.00,WeatherDisplay:10.37,2013-03-16 19:43:00,
2013-03-16 15:53:00,35.6,11.9,29.77,NW,317,1.0,9.0,37,0.00,BKN,,0.00,WeatherDisplay:10.37,2013-03-16 19:53:00,
2013-03-16 16:03:00,36.3,11.9,29.77,West,265,3.0,7.0,36,0.00,BKN,,0.00,WeatherDisplay:10.37,2013-03-16 20:03:00,
2013-03-16 16:13:00,36.7,12.2,29.77,West,268,2.0,7.0,36,0.00,BKN,,0.00,WeatherDisplay:10.37,2013-03-16 20:13:00,
2013-03-16 16:23:00,36.5,12.0,29.76,WNW,284,1.0,5.0,36,0.00,BKN,,0.00,WeatherDisplay:10.37,2013-03-16 20:23:00,
2013-03-16 16:33:00,36.6,12.1,29.76,SW,232,0.0,6.0,36,0.00,BKN,,0.00,WeatherDisplay:10.37,2013-03-16 20:33:00,
2013-03-16 16:43:00,35.3,11.0,29.76,WNW,285,3.0,7.0,36,0.00,BKN,,0.00,WeatherDisplay:10.37,2013-03-16 20:43:00,
2013-03-16 16:53:00,35.1,9.5,29.75,NNE,21,0.0,5.0,34,0.00,BKN,,0.00,WeatherDisplay:10.37,2013-03-16 20:53:00,
2013-03-16 17:03:00,36.6,12.1,29.76,SW,217,2.0,5.0,36,0.00,BKN,,0.00,WeatherDisplay:10.37,2013-03-16 21:03:00,
2013-03-16 17:13:00,35.7,10.6,29.76,West,281,3.0,10.0,35,0.00,OVC,,0.00,WeatherDisplay:10.37,2013-03-16 21:13:00,
2013-03-16 17:23:00,35.0,8.8,29.76,NW,305,2.0,7.0,33,0.00,OVC,,0.00,WeatherDisplay:10.37,2013-03-16 21:23:00,
2013-03-16 17:33:00,34.7,7.8,29.76,NNW,335,2.0,4.0,32,0.00,OVC,,0.00,WeatherDisplay:10.37,2013-03-16 21:33:00,
2013-03-16 17:43:00,34.6,9.1,29.76,NW,306,5.0,7.0,34,0.00,OVC,,0.00,WeatherDisplay:10.37,2013-03-16 21:43:00,
2013-03-16 17:53:00,34.1,8.6,29.76,NW,318,3.0,6.0,34,0.00,OVC,,0.00,WeatherDisplay:10.37,2013-03-16 21:53:00,
2013-03-16 18:03:00,33.8,9.0,29.76,West,276,1.0,5.0,35,0.00,OVC,,0.00,WeatherDisplay:10.37,2013-03-16 22:03:00,
2013-03-16 18:13:00,33.7,8.9,29.76,NW,323,3.0,6.0,35,0.00,OVC,,0.00,WeatherDisplay:10.37,2013-03-16 22:13:00,
2013-03-16 18:23:00,33.5,9.4,29.75,NNW,329,1.0,4.0,36,0.00,OVC,,0.00,WeatherDisplay:10.37,2013-03-16 22:23:00,
2013-03-16 18:33:00,33.4,9.3,29.76,NW,325,2.0,6.0,36,0.00,OVC,,0.00,WeatherDisplay:10.37,2013-03-16 22:33:00,
2013-03-16 18:43:00,33.2,9.7,29.77,NNW,332,2.0,5.0,37,0.00,OVC,,0.00,WeatherDisplay:10.37,2013-03-16 22:43:00,
2013-03-16 18:53:00,33.2,11.5,29.78,North,349,1.0,3.0,40,0.00,OVC,,0.00,WeatherDisplay:10.37,2013-03-16 22:53:00,
2013-03-16 19:03:00,33.1,10.2,29.78,WNW,298,1.0,4.0,38,0.00,OVC,,0.00,WeatherDisplay:10.37,2013-03-16 23:03:00,
2013-03-16 19:13:00,32.9,11.2,29.77,NW,321,2.0,5.0,40,0.00,OVC,,0.00,WeatherDisplay:10.37,2013-03-16 23:13:00,
2013-03-16 19:23:00,32.9,11.2,29.78,NNW,345,2.0,5.0,40,0.00,OVC,,0.00,WeatherDisplay:10.37,2013-03-16 23:23:00,
2013-03-16 19:33:00,32.8,11.6,29.78,NW,314,2.0,6.0,41,0.00,OVC,,0.00,WeatherDisplay:10.37,2013-03-16 23:33:00,
2013-03-16 19:43:00,32.6,11.5,29.79,WNW,301,0.0,5.0,41,0.00,OVC,,0.00,WeatherDisplay:10.37,2013-03-16 23:43:00,
2013-03-16 19:53:00,32.5,11.9,29.79,WNW,293,0.0,4.0,42,0.00,OVC,,0.00,WeatherDisplay:10.37,2013-03-16 23:53:00,
2013-03-16 20:03:00,32.5,11.9,29.80,WNW,284,1.0,5.0,42,0.00,OVC,,0.00,WeatherDisplay:10.37,2013-03-17 00:03:00,
2013-03-16 20:13:00,32.3,12.3,29.80,WNW,283,2.0,4.0,43,0.00,OVC,,0.00,WeatherDisplay:10.37,2013-03-17 00:13:00,
2013-03-16 20:23:00,32.3,12.3,29.80,WNW,292,0.0,3.0,43,0.00,OVC,,0.00,WeatherDisplay:10.37,2013-03-17 00:23:00,
2013-03-16 20:33:00,32.2,12.2,29.80,WNW,299,1.0,3.0,43,0.00,OVC,,0.00,WeatherDisplay:10.37,2013-03-17 00:33:00,
2013-03-16 20:43:00,32.0,12.5,29.81,NW,313,1.0,3.0,44,0.00,OVC,,0.00,WeatherDisplay:10.37,2013-03-17 00:43:00,
2013-03-16 20:53:00,31.9,12.4,29.81,NW,319,0.0,3.0,44,0.00,OVC,,0.00,WeatherDisplay:10.37,2013-03-17 00:53:00,
2013-03-16 21:03:00,31.8,12.3,29.81,NW,315,0.0,2.0,44,0.00,OVC,,0.00,WeatherDisplay:10.37,2013-03-17 01:03:00,
2013-03-16 21:13:00,31.7,12.8,29.81,NW,323,0.0,2.0,45,0.00,OVC,,0.00,WeatherDisplay:10.37,2013-03-17 01:13:00,
2013-03-16 21:23:00,31.6,13.2,29.82,NW,320,0.0,1.0,46,0.00,OVC,,0.00,WeatherDisplay:10.37,2013-03-17 01:23:00,
2013-03-16 21:33:00,31.5,13.1,29.82,NW,314,0.0,1.0,46,0.00,OVC,,0.00,WeatherDisplay:10.37,2013-03-17 01:33:00,
2013-03-16 21:43:00,31.3,13.4,29.82,NNW,330,0.0,3.0,47,0.00,OVC,,0.00,WeatherDisplay:10.37,2013-03-17 01:43:00,
2013-03-16 21:53:00,31.2,13.8,29.83,NW,318,0.0,0.0,48,0.00,OVC,,0.00,WeatherDisplay:10.37,2013-03-17 01:53:00,
2013-03-16 22:03:00,31.1,13.7,29.83,NW,311,0.0,1.0,48,0.00,OVC,,0.00,WeatherDisplay:10.37,2013-03-17 02:03:00,
2013-03-16 22:13:00,31.0,13.6,29.83,NW,311,0.0,0.0,48,0.00,OVC,,0.00,WeatherDisplay:10.37,2013-03-17 02:13:00,
2013-03-16 22:23:00,30.9,13.5,29.83,NW,314,1.0,2.0,48,0.00,OVC,,0.00,WeatherDisplay:10.37,2013-03-17 02:23:00,
2013-03-16 22:33:00,30.9,14.0,29.84,NW,312,0.0,2.0,49,0.00,OVC,,0.00,WeatherDisplay:10.37,2013-03-17 02:33:00,
2013-03-16 22:43:00,30.9,14.4,29.84,NW,323,0.0,1.0,50,0.00,OVC,,0.00,WeatherDisplay:10.37,2013-03-17 02:43:00,
2013-03-16 22:53:00,30.9,14.0,29.85,NW,311,1.0,2.0,49,0.00,OVC,,0.00,WeatherDisplay:10.37,2013-03-17 02:53:00,
2013-03-16 23:03:00,30.9,14.4,29.85,WNW,286,2.0,4.0,50,0.00,OVC,,0.00,WeatherDisplay:10.37,2013-03-17 03:03:00,
2013-03-16 23:13:00,30.9,14.9,29.85,West,261,2.0,5.0,51,0.00,OVC,,0.00,WeatherDisplay:10.37,2013-03-17 03:13:00,
2013-03-16 23:23:00,30.9,14.9,29.85,WNW,294,0.0,6.0,51,0.00,OVC,,0.00,WeatherDisplay:10.37,2013-03-17 03:23:00,
2013-03-16 23:33:00,30.6,14.6,29.86,WNW,288,2.0,6.0,51,0.00,OVC,,0.00,WeatherDisplay:10.37,2013-03-17 03:33:00,
2013-03-16 23:43:00,30.3,14.3,29.86,WNW,284,2.0,5.0,51,0.00,OVC,,0.00,WeatherDisplay:10.37,2013-03-17 03:43:00,
2013-03-16 23:53:00,30.0,14.0,29.86,WNW,292,1.0,3.0,51,0.00,OVC,,0.00,WeatherDisplay:10.37,2013-03-17 03:53:00,